Aviation Digital Data Service (ADDS)

Output produced by METARs form (0036 UTC 20 August 2017)
found at http://aviationweather.gov/adds/metars/
 
KLWB 192320Z 2000/2024 00000KT P6SM FEW250 
     FM200600 00000KT 3SM BR FEW008 
     TEMPO 2008/2011 1/2SM FG VV005 
     FM201330 00000KT P6SM FEW250 
     FM201600 00000KT P6SM FEW050